• Join FlightAware (Why Join?)
  • Login
  • US Flag 
08:35AM EDT


 

Airport Tracker/Info


-or-


 

Live Flight TrackerFlight Track Log ✈ EJA646 ✈ 22-Apr-2013 ✈ KPWK - KBNA

Flight Track Log - Related Links

Times and Time Zones

All times are in EDT time to prevent confusion due to time zone crossing. See the EJA646 flight status page for this flight to view local times or setup timezone preferences in your user account.

Time Position Orientation Groundspeed Altitude Reporting Facility
EDT Latitude Longitude Course Direction KTS MPH feet Rate Location/Type
11:13AM 42.1000 -87.9000 351° North 153 176 1,600  Level Chicago TRACON
11:14AM 42.1497 -87.9111 351° North 224 258 5,100 2,160 Climbing Chicago Center
11:15AM 42.1272 -87.8422 114° Southeast 253 291 7,700 2,100 Climbing Chicago Center
11:16AM 42.0711 -87.8950 215° Southwest 265 305 9,500 1,800 Climbing Chicago Center
11:17AM 41.9978 -87.9017 184° South 272 313 11,500 1,920 Climbing Chicago Center
11:18AM 41.9181 -87.8908 174° South 286 329 13,500 2,040 Climbing Chicago Center
11:19AM 41.8336 -87.8803 175° South 301 346 15,800 2,340 Climbing Chicago Center
11:20AM 41.7289 -87.8644 174° South 313 360 18,400 2,460 Climbing Chicago Center
11:21AM 41.6411 -87.8625 179° South 314 361 20,900 2,340 Climbing Chicago Center
11:22AM 41.5456 -87.8603 179° South 332 382 23,300 2,100 Climbing Chicago Center
11:23AM 41.4422 -87.8578 179° South 361 415 25,300 1,920 Climbing Chicago Center
11:25AM 41.3344 -87.8547 179° South 379 436 27,300 1,920 Climbing Chicago Center
11:26AM 41.2242 -87.8511 179° South 391 450 29,300 1,920 Climbing Chicago Center
11:27AM 41.1133 -87.8483 179° South 395 455 31,300 1,920 Climbing Chicago Center
11:28AM 41.0042 -87.8456 179° South 395 455 33,300 1,260 Climbing Chicago Center
11:29AM 40.8950 -87.8411 178° South 393 452 34,000 300 Climbing Chicago Center
11:30AM 40.7533 -87.8378 179° South 421 484 34,000  Level Chicago Center
11:31AM 40.6389 -87.8339 179° South 417 480 34,000  Level Chicago Center
11:32AM 40.5269 -87.8325 179° South 405 466 34,000  Level Chicago Center
11:33AM 40.4150 -87.8306 179° South 402 463 34,000  Level Chicago Center
11:33AM 40.3714 -87.8250 174° South 406 467 34,000  Level Indianapolis Center
11:34AM 40.2564 -87.8194 178° South 408 470 34,000  Level Indianapolis Center
11:35AM 40.1386 -87.8175 179° South 414 476 34,000  Level Indianapolis Center
11:36AM 40.0208 -87.8175 180° South 419 482 34,000  Level Indianapolis Center
11:37AM 39.8792 -87.8128 179° South 421 484 34,000  Level Indianapolis Center
11:38AM 39.7619 -87.8078 178° South 421 484 34,000  Level Indianapolis Center
11:39AM 39.6444 -87.8044 179° South 421 484 34,000  Level Indianapolis Center
11:40AM 39.5261 -87.8028 179° South 423 487 34,000  Level Indianapolis Center
11:41AM 39.4083 -87.8000 179° South 423 487 34,000  Level Indianapolis Center
11:42AM 39.2936 -87.7956 178° South 415 478 34,000 -300 Level Indianapolis Center
11:43AM 39.1772 -87.7947 180° South 416 479 33,500 -480 Descending Indianapolis Center
11:44AM 39.0597 -87.7900 178° South 420 483 33,100 -300 Descending Indianapolis Center
11:45AM 38.9444 -87.7878 179° South 416 479 33,000 -60 Descending Indianapolis Center
11:46AM 38.8078 -87.7839 179° South 411 473 33,000  Level Indianapolis Center
11:48AM 38.6894 -87.7817 179° South 419 482 33,000 -240 Level Indianapolis Center
11:49AM 38.5700 -87.7778 179° South 428 493 32,600 -720 Descending Indianapolis Center
11:50AM 38.4514 -87.7750 179° South 428 493 31,600 -1,020 Descending Indianapolis Center
11:51AM 38.3308 -87.7714 179° South 432 497 30,600 -840 Descending Indianapolis Center
11:52AM 38.2119 -87.7703 180° South 429 494 30,000 -840 Descending Indianapolis Center
11:53AM 38.0939 -87.7661 178° South 427 491 29,000 -1,140 Descending Indianapolis Center
11:54AM 37.9544 -87.7606 178° South 420 483 27,700 -1,200 Descending Indianapolis Center
11:55AM 37.8453 -87.6872 152° Southeast 445 512 26,600 -1,080 Descending Indianapolis Center
11:56AM 37.7542 -87.6072 145° Southeast 446 513 25,600 -1,140 Descending Indianapolis Center
11:57AM 37.6336 -87.4997 145° Southeast 448 516 24,300 -1,140 Descending Indianapolis Center
11:57AM 37.6131 -87.4853 151° Southeast 438 504 24,100 -960 Descending Memphis Center
11:58AM 37.5131 -87.3947 144° Southeast 446 513 23,100 -600 Descending Memphis Center
11:59AM 37.4153 -87.3072 145° Southeast 436 502 23,000 -60 Descending Memphis Center
12:00PM 37.3117 -87.2458 155° Southeast 424 488 23,000  Level Memphis Center
12:01PM 37.1983 -87.2111 166° South 424 488 23,000 -120 Level Memphis Center
12:01PM 37.1481 -87.2003 170° South 428 493 22,900 -1,320 Descending Memphis Center
12:02PM 37.0847 -87.1767 163° South 419 482 21,700 -1,920 Descending Memphis Center
12:03PM 36.9672 -87.1450 168° South 406 467 19,700 -1,860 Descending Memphis Center
12:04PM 36.8581 -87.1106 166° South 401 461 18,000 -1,920 Descending Memphis Center
12:04PM 36.8267 -87.1067 174° South 392 451 17,300 -2,100 Descending Memphis Center
12:05PM 36.7631 -87.0678 154° Southeast 381 438 15,900 -1,980 Descending Memphis Center
12:06PM 36.6869 -87.0192 153° Southeast 335 386 13,900 -2,040 Descending Memphis Center
12:07PM 36.6022 -86.9708 155° Southeast 327 376 11,900 -2,040 Descending Memphis Center
12:08PM 36.5519 -86.8903 128° Southeast 302 348 9,900 -1,920 Descending Memphis Center
12:09PM 36.5103 -86.8147 124° Southeast 273 314 8,100 -1,740 Descending Memphis Center
12:10PM 36.4772 -86.7569 125° Southeast 249 287 6,500 -1,800 Descending Memphis Center
12:11PM 36.4361 -86.6994 132° Southeast 232 267 4,600 -1,800 Descending Memphis Center
12:12PM 36.3947 -86.6444 133° Southeast 219 252 3,000 -840 Descending Memphis Center
12:13PM 36.3581 -86.5972 134° Southeast 197 227 3,000  Level Memphis Center
12:14PM 36.3081 -86.6022 185° South 155 178 3,000  Level Memphis Center
12:15PM 36.2567 -86.6225 198° South 182 209 3,000 -300 Level Memphis Center
12:16PM 36.2094 -86.6453 201° Southwest 187 215 2,400 -840 Descending Memphis Center
12:17PM 36.1639 -86.6628 197° South 187 215 1,400 -900 Descending Memphis Center
12:18PM 36.1311 -86.6769 199° South 152 175 700 -360 Descending Memphis Center
12:19PM 36.0878 -86.6919 196° South 152 175 700  Level Memphis Center
12:21PM 36.1167 -86.6667 22° Northeast  Level FlightAware Approximate
12:28PM 36.1245 -86.6782 22° Northeast  Level Estimated
12:29PM 36.1245 -86.6782 22° Northeast  Level Estimated
12:30PM 36.1245 -86.6782 22° Northeast  Level Estimated
12:31PM 36.1245 -86.6782 22° Northeast  Level Estimated
12:32PM 36.1245 -86.6782 22° Northeast  Level Estimated
12:33PM 36.1245 -86.6782 22° Northeast  Level Estimated
12:34PM 36.1245 -86.6782 22° Northeast  Level Estimated
12:35PM 36.1245 -86.6782 22° Northeast  Level Estimated
12:36PM 36.1245 -86.6782 22° Northeast  Level Estimated